Time;durP1;ratioP1;P1;durP2;ratioP2;P2;SDS_P1;SDS_P2;PMS_P1;PMS_P2;Temp;Humidity;BMP_temperature;BMP_pressure;BME280_temperature;BME280_humidity;BME280_pressure;Samples;Min_cycle;Max_cycle;Signal;HPM_P1;HPM_P2
2023/03/14 00:01:09;;;;;;;5.95;2.90;;;22.40;71.70;;;;;;6087697;28;89132;-74
2023/03/14 00:04:11;;;;;;;5.80;2.58;;;22.30;71.60;;;;;;6086246;28;89132;-74
2023/03/14 00:07:14;;;;;;;5.82;2.55;;;22.30;71.50;;;;;;6110313;28;89105;-75
2023/03/14 00:10:17;;;;;;;3.83;2.47;;;22.30;71.50;;;;;;6086964;28;89181;-73
2023/03/14 00:13:19;;;;;;;4.03;2.90;;;22.30;71.40;;;;;;6087099;28;88098;-71
2023/03/14 00:16:22;;;;;;;5.55;2.55;;;22.40;71.50;;;;;;6087138;28;87932;-70
2023/03/14 00:19:24;;;;;;;4.30;2.50;;;22.30;71.10;;;;;;6079479;28;87643;-71
2023/03/14 00:22:28;;;;;;;4.80;2.60;;;22.30;71.00;;;;;;6088224;28;89044;-72
2023/03/14 00:25:30;;;;;;;3.80;2.60;;;22.30;70.90;;;;;;6086415;28;89370;-71
2023/03/14 00:28:32;;;;;;;2.95;2.20;;;22.30;70.90;;;;;;6086209;28;90027;-70
2023/03/14 00:31:36;;;;;;;5.22;2.50;;;22.30;70.70;;;;;;6086961;28;89098;-71
2023/03/14 00:34:39;;;;;;;5.82;2.75;;;22.30;70.60;;;;;;6086731;28;89354;-71
2023/03/14 00:37:41;;;;;;;4.93;2.70;;;22.30;70.60;;;;;;6086798;28;89083;-72
2023/03/14 00:40:43;;;;;;;4.85;2.55;;;22.30;70.60;;;;;;6086336;28;89354;-71
2023/03/14 00:43:46;;;;;;;4.22;2.58;;;22.30;70.50;;;;;;6094139;28;89492;-75
2023/03/14 00:46:49;;;;;;;3.17;2.35;;;22.20;70.40;;;;;;6086464;28;88204;-75
2023/03/14 00:49:51;;;;;;;4.43;2.65;;;22.30;70.50;;;;;;6086158;28;88346;-72
2023/03/14 00:52:53;;;;;;;3.53;2.38;;;22.20;70.30;;;;;;6087825;28;89104;-72
2023/03/14 00:55:55;;;;;;;3.65;2.20;;;22.20;70.30;;;;;;6097805;28;89623;-71
2023/03/14 00:58:57;;;;;;;4.32;2.40;;;22.20;70.30;;;;;;6086406;28;89924;-72
2023/03/14 01:02:01;;;;;;;4.10;2.50;;;22.20;71.10;;;;;;6094758;28;89034;-71
2023/03/14 01:05:03;;;;;;;3.17;2.30;;;22.20;70.00;;;;;;6089003;28;89048;-71
2023/03/14 01:08:07;;;;;;;3.03;2.30;;;22.20;70.00;;;;;;6084713;28;89448;-72
2023/03/14 01:11:11;;;;;;;3.20;2.20;;;22.20;69.90;;;;;;6090832;28;89153;-71
2023/03/14 01:14:13;;;;;;;4.70;2.33;;;22.20;69.80;;;;;;6089053;28;89030;-73
2023/03/14 01:17:17;;;;;;;3.83;2.40;;;22.20;69.90;;;;;;6076041;28;89412;-74
2023/03/14 01:20:19;;;;;;;3.85;2.22;;;22.20;70.00;;;;;;6091501;28;88364;-75
2023/03/14 01:23:21;;;;;;;3.05;2.40;;;22.20;69.90;;;;;;6084811;28;89098;-73
2023/03/14 01:26:26;;;;;;;3.83;2.40;;;22.20;69.90;;;;;;6077109;28;88340;-74
2023/03/14 01:29:28;;;;;;;3.70;2.25;;;22.20;70.00;;;;;;6082023;28;90363;-72
2023/03/14 01:32:31;;;;;;;3.40;2.20;;;22.20;69.90;;;;;;6085677;28;89166;-72
2023/03/14 01:35:34;;;;;;;2.85;2.20;;;22.20;70.00;;;;;;6086136;28;88969;-71
2023/03/14 01:38:37;;;;;;;4.40;2.40;;;22.20;69.90;;;;;;6085020;28;89030;-72
2023/03/14 01:41:39;;;;;;;3.25;2.30;;;22.20;69.90;;;;;;6078591;28;89438;-72
2023/03/14 01:44:52;;;;;;;4.43;2.78;;;22.20;69.80;;;;;;6096794;28;89135;-71
2023/03/14 01:47:56;;;;;;;3.58;2.47;;;22.10;69.80;;;;;;6081945;28;89712;-71
2023/03/14 01:50:58;;;;;;;2.85;2.10;;;22.20;69.90;;;;;;6091663;28;88276;-71
2023/03/14 01:54:06;;;;;;;3.42;2.17;;;22.20;70.00;;;;;;6085487;28;88613;-71
2023/03/14 01:57:12;;;;;;;2.58;2.00;;;22.10;69.90;;;;;;6084427;28;88036;-72
2023/03/14 02:00:16;;;;;;;3.47;2.55;;;22.10;70.00;;;;;;6098299;28;90561;-72
2023/03/14 02:03:23;;;;;;;4.60;2.33;;;22.10;70.00;;;;;;6092745;28;89161;-71
2023/03/14 02:06:29;;;;;;;2.75;2.13;;;22.10;70.00;;;;;;6096782;28;89481;-71
2023/03/14 02:09:31;;;;;;;2.50;2.03;;;22.10;70.00;;;;;;6086342;28;89081;-72
2023/03/14 02:12:34;;;;;;;3.90;2.03;;;22.10;70.00;;;;;;6084536;28;89190;-70
2023/03/14 02:15:36;;;;;;;3.45;2.30;;;22.10;70.00;;;;;;6084959;28;89179;-70
2023/03/14 02:18:41;;;;;;;2.13;1.88;;;22.10;70.00;;;;;;6088923;28;89255;-71
2023/03/14 02:21:50;;;;;;;2.45;2.03;;;22.10;70.00;;;;;;6081412;28;88552;-72
2023/03/14 02:25:00;;;;;;;3.33;1.88;;;22.10;70.00;;;;;;6079797;28;89034;-72
2023/03/14 02:28:04;;;;;;;2.35;2.00;;;22.10;70.00;;;;;;6097274;28;89176;-71
2023/03/14 02:31:08;;;;;;;3.15;2.20;;;22.10;70.00;;;;;;6083454;28;89926;-72
2023/03/14 02:34:10;;;;;;;3.38;2.20;;;22.10;70.00;;;;;;6084874;28;89299;-72
2023/03/14 02:37:14;;;;;;;3.78;1.92;;;22.10;70.00;;;;;;6088579;28;89338;-71
2023/03/14 02:40:17;;;;;;;2.10;1.90;;;22.10;70.00;;;;;;6083550;28;89016;-72
2023/03/14 02:43:20;;;;;;;2.70;2.05;;;22.10;70.00;;;;;;6084967;28;89077;-73
2023/03/14 02:46:23;;;;;;;2.20;1.98;;;22.00;70.00;;;;;;6084075;28;87680;-72
2023/03/14 02:49:28;;;;;;;2.88;2.20;;;22.10;70.10;;;;;;6075132;28;88392;-73
2023/03/14 02:52:30;;;;;;;3.03;1.88;;;22.10;70.10;;;;;;6071895;28;88115;-73
2023/03/14 02:55:32;;;;;;;3.00;1.98;;;22.10;70.00;;;;;;6079446;28;88338;-73
2023/03/14 02:58:36;;;;;;;2.78;2.03;;;22.10;70.00;;;;;;6066263;28;88692;-73
2023/03/14 03:01:38;;;;;;;3.30;1.83;;;22.10;70.00;;;;;;6084303;28;89241;-71
2023/03/14 03:04:40;;;;;;;3.10;2.20;;;22.00;70.00;;;;;;6083188;28;89108;-73
2023/03/14 03:07:42;;;;;;;2.97;2.08;;;22.10;70.00;;;;;;6084337;28;88023;-73
2023/03/14 03:10:44;;;;;;;2.72;1.92;;;22.10;70.10;;;;;;6091246;28;89476;-73
2023/03/14 03:13:47;;;;;;;2.97;2.00;;;22.00;70.00;;;;;;6082263;28;89043;-72
2023/03/14 03:16:49;;;;;;;2.70;1.85;;;22.00;70.10;;;;;;6089652;28;89217;-73
2023/03/14 03:19:51;;;;;;;2.63;1.92;;;22.00;70.10;;;;;;6088834;28;89295;-73
2023/03/14 03:22:53;;;;;;;2.88;2.05;;;22.00;70.10;;;;;;6079503;28;88022;-73
2023/03/14 03:25:55;;;;;;;1.80;1.63;;;22.00;70.10;;;;;;6087299;28;88316;-73
2023/03/14 03:28:59;;;;;;;3.00;2.17;;;22.00;70.10;;;;;;6081252;28;89640;-72
2023/03/14 03:32:01;;;;;;;2.70;1.90;;;22.00;70.10;;;;;;6077427;28;90374;-73
2023/03/14 03:35:03;;;;;;;2.75;2.00;;;22.00;70.00;;;;;;6074126;28;89193;-72
2023/03/14 03:38:05;;;;;;;3.08;2.00;;;22.00;70.00;;;;;;6082588;28;87213;-73
2023/03/14 03:41:08;;;;;;;2.45;1.95;;;22.00;70.10;;;;;;6087579;28;89118;-72
2023/03/14 03:44:12;;;;;;;2.03;1.80;;;22.00;70.00;;;;;;6087616;28;88994;-73
2023/03/14 03:47:14;;;;;;;2.28;1.90;;;22.00;70.00;;;;;;6087401;28;89102;-73
2023/03/14 03:50:17;;;;;;;3.20;2.00;;;22.00;70.10;;;;;;6087619;28;89197;-74
2023/03/14 03:53:19;;;;;;;2.53;1.80;;;22.00;70.10;;;;;;6086727;28;88502;-73
2023/03/14 03:56:21;;;;;;;2.20;1.70;;;22.00;70.10;;;;;;6077781;28;89106;-72
2023/03/14 03:59:25;;;;;;;2.38;1.80;;;22.00;70.10;;;;;;6086379;28;89058;-72
2023/03/14 04:02:27;;;;;;;2.33;1.80;;;22.00;70.10;;;;;;6086071;28;89981;-73
2023/03/14 04:05:29;;;;;;;2.30;2.00;;;22.00;70.10;;;;;;6077387;28;89174;-72
2023/03/14 04:08:31;;;;;;;3.28;2.20;;;22.00;70.10;;;;;;6087180;28;89221;-72
2023/03/14 04:11:33;;;;;;;2.88;1.90;;;22.00;70.00;;;;;;6087957;28;88017;-72
2023/03/14 04:14:37;;;;;;;2.60;1.90;;;22.00;69.90;;;;;;6088711;28;87905;-72
2023/03/14 04:17:39;;;;;;;2.42;2.00;;;21.90;69.80;;;;;;6086742;28;89152;-72
2023/03/14 04:20:41;;;;;;;2.40;2.00;;;22.00;69.90;;;;;;6087604;28;88977;-73
2023/03/14 04:23:43;;;;;;;2.65;2.00;;;22.00;70.00;;;;;;6075983;28;88429;-72
2023/03/14 04:26:45;;;;;;;2.40;2.20;;;22.00;69.90;;;;;;6086319;28;89208;-72
2023/03/14 04:29:48;;;;;;;2.28;2.08;;;21.90;69.80;;;;;;6086587;28;89147;-72
2023/03/14 04:32:50;;;;;;;2.45;2.10;;;21.90;69.90;;;;;;6086084;28;90135;-72
2023/03/14 04:35:55;;;;;;;2.92;2.25;;;21.90;69.90;;;;;;6086530;28;89267;-71
2023/03/14 04:38:57;;;;;;;2.70;2.25;;;21.90;70.00;;;;;;6079185;28;89021;-71
2023/03/14 04:41:59;;;;;;;2.80;2.20;;;21.90;70.00;;;;;;6086631;28;89203;-72
2023/03/14 04:45:03;;;;;;;2.58;2.13;;;21.90;69.90;;;;;;6086390;28;89083;-71
2023/03/14 04:48:06;;;;;;;2.63;2.40;;;21.90;70.00;;;;;;6086282;28;89013;-72
2023/03/14 04:51:08;;;;;;;2.80;2.40;;;21.90;70.00;;;;;;6084963;28;89150;-72
2023/03/14 04:54:10;;;;;;;3.65;2.63;;;21.90;69.90;;;;;;6085906;28;88732;-73
2023/03/14 04:57:12;;;;;;;3.15;2.42;;;21.90;69.90;;;;;;6083422;28;89091;-72
2023/03/14 05:00:17;;;;;;;4.82;3.30;;;21.90;69.80;;;;;;6084618;28;88875;-72
2023/03/14 05:03:20;;;;;;;3.55;2.60;;;21.90;69.70;;;;;;6085086;28;90088;-71
2023/03/14 05:06:22;;;;;;;3.00;2.55;;;21.90;69.80;;;;;;6086180;28;88015;-71
2023/03/14 05:09:24;;;;;;;2.55;2.35;;;21.90;69.60;;;;;;6086491;28;89131;-72
2023/03/14 05:12:26;;;;;;;3.00;2.65;;;21.90;69.70;;;;;;6086037;28;89544;-71
2023/03/14 05:15:29;;;;;;;3.17;2.63;;;21.90;69.60;;;;;;6077723;28;90442;-71
2023/03/14 05:18:31;;;;;;;3.03;2.55;;;21.90;69.60;;;;;;6074447;28;89132;-72
2023/03/14 05:21:34;;;;;;;3.15;2.75;;;21.90;69.60;;;;;;6083695;28;89109;-71
2023/03/14 05:24:36;;;;;;;3.10;2.80;;;21.90;69.60;;;;;;6077814;28;88319;-71
2023/03/14 05:27:38;;;;;;;3.13;2.53;;;22.00;69.60;;;;;;6085180;28;89109;-70
2023/03/14 05:30:41;;;;;;;3.10;2.70;;;22.00;69.60;;;;;;6085792;28;89180;-70
2023/03/14 05:33:43;;;;;;;4.68;2.50;;;22.00;69.60;;;;;;6080363;28;90095;-70
2023/03/14 05:36:45;;;;;;;4.05;3.00;;;22.00;69.60;;;;;;6085974;28;89135;-70
2023/03/14 05:39:47;;;;;;;3.33;2.83;;;22.00;69.60;;;;;;6076903;28;89048;-71
2023/03/14 05:42:49;;;;;;;3.58;2.90;;;22.00;69.60;;;;;;6084965;28;89111;-71
2023/03/14 05:45:52;;;;;;;3.50;2.80;;;22.00;69.60;;;;;;6085661;28;90107;-71
2023/03/14 05:48:54;;;;;;;4.32;2.88;;;22.00;69.50;;;;;;6074514;28;87972;-71
2023/03/14 05:51:57;;;;;;;3.60;3.00;;;22.00;69.60;;;;;;6074985;28;89069;-68
2023/03/14 05:54:58;;;;;;;3.38;3.00;;;22.00;69.70;;;;;;6072607;28;88441;-70
2023/03/14 05:58:01;;;;;;;4.15;3.00;;;21.90;70.10;;;;;;6084448;28;89131;-70
2023/03/14 06:01:06;;;;;;;3.78;2.83;;;22.00;70.40;;;;;;6083676;28;89014;-68
2023/03/14 06:04:08;;;;;;;3.00;2.70;;;22.00;70.50;;;;;;6085836;28;88833;-71
2023/03/14 06:07:10;;;;;;;4.47;3.20;;;22.00;70.80;;;;;;6085206;28;89101;-70
2023/03/14 06:10:12;;;;;;;3.85;2.90;;;22.00;71.00;;;;;;6084571;28;89101;-70
2023/03/14 06:13:15;;;;;;;3.67;3.10;;;22.00;71.10;;;;;;6084270;28;89124;-69
2023/03/14 06:16:18;;;;;;;3.53;3.22;;;22.00;71.00;;;;;;6079923;28;89562;-70
2023/03/14 06:19:20;;;;;;;3.53;3.00;;;22.00;70.90;;;;;;6086052;28;89062;-69
2023/03/14 06:22:23;;;;;;;3.22;2.92;;;22.00;70.80;;;;;;6073576;28;89114;-70
2023/03/14 06:25:25;;;;;;;3.70;3.30;;;22.00;70.70;;;;;;6080705;28;88374;-69
2023/03/14 06:28:28;;;;;;;3.28;2.97;;;22.00;70.60;;;;;;6081996;28;89455;-68
2023/03/14 06:31:31;;;;;;;3.50;3.20;;;22.10;71.40;;;;;;6085857;28;89095;-69
2023/03/14 06:34:34;;;;;;;4.35;3.33;;;22.00;70.50;;;;;;6082978;28;90119;-69
2023/03/14 06:37:36;;;;;;;5.25;3.17;;;22.00;70.50;;;;;;6084595;28;89339;-69
2023/03/14 06:40:38;;;;;;;3.85;2.97;;;22.00;70.50;;;;;;6084945;28;89153;-69
2023/03/14 06:43:40;;;;;;;3.17;2.88;;;22.00;70.50;;;;;;6084136;28;88231;-69
2023/03/14 06:46:43;;;;;;;3.80;3.35;;;22.10;70.50;;;;;;6083821;28;89101;-69
2023/03/14 06:49:45;;;;;;;3.28;2.97;;;22.10;70.50;;;;;;6077628;28;88544;-68
2023/03/14 06:52:47;;;;;;;4.35;3.63;;;22.10;70.50;;;;;;6076968;28;89178;-68
2023/03/14 06:55:49;;;;;;;4.32;3.42;;;22.10;70.50;;;;;;6077664;28;88519;-69
2023/03/14 06:58:51;;;;;;;3.92;3.58;;;22.10;70.40;;;;;;6073520;28;89507;-69
2023/03/14 07:01:55;;;;;;;3.78;3.30;;;22.10;70.40;;;;;;6082669;28;88157;-69
2023/03/14 07:04:57;;;;;;;5.05;3.65;;;22.10;70.50;;;;;;6083164;28;89262;-69
2023/03/14 07:07:59;;;;;;;4.00;3.50;;;22.20;70.60;;;;;;6083203;28;88930;-70
2023/03/14 07:11:01;;;;;;;4.18;3.55;;;22.10;70.60;;;;;;6080482;28;89076;-69
2023/03/14 07:14:03;;;;;;;4.55;3.35;;;22.20;70.70;;;;;;6078513;28;87760;-69
2023/03/14 07:17:06;;;;;;;4.30;3.85;;;22.20;70.70;;;;;;6081752;28;89256;-69
2023/03/14 07:20:10;;;;;;;5.35;3.60;;;22.20;70.60;;;;;;6078978;28;88997;-69
2023/03/14 07:23:12;;;;;;;4.47;3.78;;;22.20;70.60;;;;;;6077232;28;88033;-70
2023/03/14 07:26:14;;;;;;;5.68;3.80;;;22.10;70.60;;;;;;6077140;28;88637;-68
2023/03/14 07:29:16;;;;;;;3.97;3.33;;;22.20;70.60;;;;;;6089125;28;89377;-69
2023/03/14 07:32:19;;;;;;;5.57;3.50;;;22.20;70.60;;;;;;6088535;28;88982;-70
2023/03/14 07:35:21;;;;;;;5.80;3.70;;;22.20;70.60;;;;;;6078588;28;90056;-70
2023/03/14 07:38:23;;;;;;;4.32;3.80;;;22.20;70.60;;;;;;6078967;28;89869;-69
2023/03/14 07:41:26;;;;;;;4.75;3.58;;;22.20;70.60;;;;;;6075727;28;89330;-69
2023/03/14 07:44:28;;;;;;;5.65;3.60;;;22.20;70.60;;;;;;6075792;28;88099;-69
2023/03/14 07:47:31;;;;;;;4.80;3.80;;;22.20;70.60;;;;;;6083529;28;89015;-69
2023/03/14 07:50:33;;;;;;;6.30;3.58;;;22.20;70.70;;;;;;6079523;28;89566;-69
2023/03/14 07:53:35;;;;;;;5.55;3.70;;;22.20;70.80;;;;;;6077024;28;89614;-69
2023/03/14 07:56:37;;;;;;;4.63;3.15;;;22.20;70.80;;;;;;6078620;28;88470;-69
2023/03/14 07:59:39;;;;;;;5.82;3.83;;;22.20;70.80;;;;;;6076447;28;89090;-69
2023/03/14 08:02:43;;;;;;;4.53;3.85;;;22.20;70.80;;;;;;6078353;28;89520;-68
2023/03/14 08:05:48;;;;;;;4.65;3.53;;;22.20;70.80;;;;;;6079225;28;90014;-69
2023/03/14 08:08:50;;;;;;;4.53;3.20;;;22.30;70.80;;;;;;6078323;28;89136;-68
2023/03/14 08:11:52;;;;;;;4.55;3.60;;;22.30;70.80;;;;;;6078128;28;89350;-68
2023/03/14 08:14:54;;;;;;;4.57;3.40;;;22.30;70.90;;;;;;6076786;28;89080;-69
2023/03/14 08:17:57;;;;;;;5.70;3.63;;;22.30;70.80;;;;;;6069421;28;89141;-70
2023/03/14 08:20:59;;;;;;;7.25;3.95;;;22.30;70.90;;;;;;6076326;28;89152;-70
2023/03/14 08:24:01;;;;;;;3.72;3.20;;;22.30;70.90;;;;;;6080707;28;89060;-70
2023/03/14 08:27:04;;;;;;;4.70;3.38;;;22.30;70.80;;;;;;6083706;28;88458;-70
2023/03/14 08:30:07;;;;;;;5.43;3.40;;;22.30;70.90;;;;;;6073356;28;89494;-69
2023/03/14 08:33:10;;;;;;;5.32;3.42;;;22.30;70.80;;;;;;6077581;28;89158;-69
2023/03/14 08:36:12;;;;;;;3.90;3.47;;;22.40;70.90;;;;;;6078536;28;90036;-69
2023/03/14 08:39:14;;;;;;;5.20;3.70;;;22.30;70.80;;;;;;6079594;28;89073;-70
2023/03/14 08:42:16;;;;;;;4.45;3.58;;;22.30;70.90;;;;;;6077678;28;89210;-70
2023/03/14 08:45:19;;;;;;;5.90;3.50;;;22.30;70.80;;;;;;6071761;28;89061;-69
2023/03/14 08:48:22;;;;;;;5.55;3.53;;;22.40;70.90;;;;;;6080848;28;87890;-69
2023/03/14 08:51:24;;;;;;;3.85;3.20;;;22.30;70.80;;;;;;6073705;28;88893;-69
2023/03/14 08:54:26;;;;;;;4.30;3.20;;;22.40;70.90;;;;;;6075218;28;88278;-68
2023/03/14 08:57:28;;;;;;;5.57;3.58;;;22.30;70.80;;;;;;6081809;28;89594;-69
2023/03/14 09:00:30;;;;;;;5.35;3.60;;;22.40;70.90;;;;;;6075281;28;89103;-68
2023/03/14 09:03:34;;;;;;;6.00;3.53;;;22.30;70.80;;;;;;6078851;28;88332;-69
2023/03/14 09:06:36;;;;;;;4.82;3.10;;;22.40;71.00;;;;;;6074903;28;90202;-69
2023/03/14 09:09:38;;;;;;;5.70;3.30;;;22.40;71.10;;;;;;6084662;28;89156;-69
2023/03/14 09:12:40;;;;;;;7.03;3.08;;;22.40;71.10;;;;;;6084313;28;88999;-69
2023/03/14 09:15:43;;;;;;;3.50;2.97;;;22.40;71.10;;;;;;6085811;28;90350;-69
2023/03/14 09:18:46;;;;;;;4.32;3.20;;;22.40;71.10;;;;;;6086556;28;89100;-69
2023/03/14 09:21:48;;;;;;;4.40;3.22;;;22.40;71.10;;;;;;6085330;28;89435;-69
2023/03/14 09:24:50;;;;;;;3.97;3.30;;;22.30;71.00;;;;;;6079690;28;89258;-69
2023/03/14 09:27:52;;;;;;;4.13;3.33;;;22.40;71.00;;;;;;6085860;28;89301;-69
2023/03/14 09:30:55;;;;;;;3.95;3.00;;;22.40;71.00;;;;;;6085947;28;89616;-69
2023/03/14 09:33:58;;;;;;;3.92;3.13;;;22.30;71.00;;;;;;6085104;28;89039;-69
2023/03/14 09:37:01;;;;;;;4.80;3.10;;;22.40;71.00;;;;;;6084709;28;90048;-69
2023/03/14 09:40:10;;;;;;;4.90;3.55;;;22.40;70.90;;;;;;6079441;28;89137;-69
2023/03/14 09:43:14;;;;;;;4.15;3.03;;;22.40;70.80;;;;;;6085788;28;88024;-69
2023/03/14 09:46:17;;;;;;;4.07;3.63;;;22.40;70.80;;;;;;6081279;28;89148;-69
2023/03/14 09:49:22;;;;;;;4.97;3.28;;;22.40;70.70;;;;;;6085752;28;89068;-69
2023/03/14 09:52:29;;;;;;;4.95;3.20;;;22.40;70.70;;;;;;6084562;28;89077;-69
2023/03/14 09:55:33;;;;;;;4.05;3.05;;;22.40;70.70;;;;;;6077551;28;89146;-69
2023/03/14 09:58:37;;;;;;;4.07;3.17;;;22.40;70.60;;;;;;6085232;28;88351;-69
2023/03/14 10:01:39;;;;;;;3.25;2.95;;;22.30;70.50;;;;;;6083653;28;89511;-69
2023/03/14 10:04:44;;;;;;;4.00;3.28;;;22.40;70.60;;;;;;6084052;28;89036;-69
2023/03/14 10:07:46;;;;;;;3.95;3.08;;;22.30;70.50;;;;;;6083432;28;90058;-69
2023/03/14 10:10:49;;;;;;;4.03;2.90;;;22.30;70.50;;;;;;6083947;28;89165;-69
2023/03/14 10:14:03;;;;;;;4.45;3.17;;;22.40;70.50;;;;;;6081555;28;89094;-69
2023/03/14 10:17:09;;;;;;;3.92;3.15;;;22.40;70.50;;;;;;6084998;28;89062;-68
2023/03/14 10:20:32;;;;;;;3.42;3.13;;;22.40;70.40;;;;;;6082893;28;88064;-69
2023/03/14 10:23:35;;;;;;;3.28;2.97;;;22.40;70.30;;;;;;6085616;28;89246;-69
2023/03/14 10:26:38;;;;;;;4.35;3.38;;;22.40;70.30;;;;;;6077103;28;89041;-69
2023/03/14 10:33:22;;;;;;;4.82;3.33;;;22.40;70.30;;;;;;6080147;28;87355;-70
2023/03/14 10:36:29;;;;;;;3.40;3.10;;;22.40;70.30;;;;;;6082901;28;89182;-69
2023/03/14 10:39:42;;;;;;;5.00;3.22;;;22.40;70.30;;;;;;6082119;28;90096;-69
2023/03/14 10:42:47;;;;;;;4.75;3.35;;;22.40;70.30;;;;;;6075242;28;88052;-70
2023/03/14 10:45:57;;;;;;;5.60;3.17;;;22.40;70.30;;;;;;6082849;28;89584;-69
2023/03/14 10:48:59;;;;;;;5.72;3.35;;;22.40;70.50;;;;;;6073747;28;89082;-71
2023/03/14 10:52:16;;;;;;;6.10;3.70;;;22.40;70.50;;;;;;6080988;28;89386;-70
2023/03/14 10:55:18;;;;;;;4.35;3.20;;;22.40;70.60;;;;;;6081623;28;89056;-70
2023/03/14 10:58:26;;;;;;;6.28;3.60;;;22.40;70.60;;;;;;6079757;28;89199;-70
2023/03/14 11:01:38;;;;;;;5.53;3.60;;;22.40;70.60;;;;;;6078178;28;88529;-71
2023/03/14 11:04:56;;;;;;;5.38;4.00;;;22.40;70.60;;;;;;6081148;28;88023;-70
2023/03/14 11:08:03;;;;;;;4.78;3.90;;;22.50;70.80;;;;;;6079543;28;89343;-69
2023/03/14 11:11:14;;;;;;;6.03;3.75;;;22.40;70.80;;;;;;6080204;28;90106;-70
2023/03/14 11:14:25;;;;;;;4.30;3.90;;;22.50;71.00;;;;;;6081343;28;89305;-70
2023/03/14 11:17:32;;;;;;;6.20;4.20;;;22.40;70.80;;;;;;6075275;28;89130;-69
2023/03/14 11:20:39;;;;;;;4.93;3.88;;;22.50;71.00;;;;;;6082603;28;89006;-69
2023/03/14 11:23:51;;;;;;;7.22;4.82;;;22.50;71.10;;;;;;6084497;28;88987;-69
2023/03/14 11:27:00;;;;;;;6.13;4.68;;;22.50;71.10;;;;;;6083948;28;89088;-69
2023/03/14 11:30:15;;;;;;;7.72;4.60;;;22.50;71.00;;;;;;6083936;28;89119;-69
2023/03/14 11:33:19;;;;;;;6.60;4.93;;;22.50;71.00;;;;;;6083670;28;88350;-70
2023/03/14 11:36:26;;;;;;;9.93;5.28;;;22.50;71.00;;;;;;6082150;28;89300;-69
2023/03/14 11:39:39;;;;;;;7.22;4.97;;;22.50;70.90;;;;;;6071675;28;89092;-69
2023/03/14 11:42:45;;;;;;;7.38;5.38;;;22.50;71.80;;;;;;6082810;28;90421;-69
2023/03/14 11:45:51;;;;;;;7.13;5.38;;;22.40;70.80;;;;;;6083652;28;89129;-69
2023/03/14 11:49:02;;;;;;;8.02;4.95;;;22.50;70.80;;;;;;6087645;28;88085;-69
2023/03/14 11:52:09;;;;;;;7.28;5.13;;;22.50;70.80;;;;;;6077746;28;89185;-69
2023/03/14 11:55:18;;;;;;;7.53;5.57;;;22.50;70.80;;;;;;6086857;28;89065;-69
2023/03/14 11:58:24;;;;;;;6.57;5.25;;;22.50;70.70;;;;;;6087021;28;88019;-69
2023/03/14 12:01:34;;;;;;;6.53;5.60;;;22.50;70.60;;;;;;6086357;28;89105;-69
2023/03/14 12:04:51;;;;;;;7.75;5.57;;;22.50;70.60;;;;;;6087853;28;88375;-69
2023/03/14 12:08:23;;;;;;;6.85;6.10;;;22.50;70.60;;;;;;6083913;28;89165;-69
2023/03/14 12:11:34;;;;;;;6.95;5.93;;;22.50;70.60;;;;;;6086350;28;88013;-70
2023/03/14 12:14:38;;;;;;;6.25;5.60;;;22.50;70.50;;;;;;6076316;28;90080;-69
2023/03/14 12:17:43;;;;;;;6.63;5.90;;;22.50;70.50;;;;;;6086495;28;89171;-69
2023/03/14 12:20:54;;;;;;;8.05;6.60;;;22.50;70.50;;;;;;6084339;28;88941;-70
2023/03/14 12:23:58;;;;;;;7.68;6.88;;;22.50;70.50;;;;;;6080075;28;89389;-69
2023/03/14 12:27:03;;;;;;;8.07;7.00;;;22.50;70.50;;;;;;6087790;28;89115;-69
2023/03/14 12:30:20;;;;;;;8.07;6.68;;;22.50;70.50;;;;;;6086434;28;89361;-69
2023/03/14 12:33:41;;;;;;;7.78;6.88;;;22.50;70.40;;;;;;6087126;28;89393;-70
2023/03/14 12:36:56;;;;;;;8.35;7.55;;;22.50;70.40;;;;;;6086180;28;88589;-69
2023/03/14 12:40:17;;;;;;;7.88;7.18;;;22.50;70.40;;;;;;6076793;28;89024;-69
2023/03/14 12:43:33;;;;;;;8.63;7.70;;;22.50;71.30;;;;;;6073326;28;89117;-69
2023/03/14 12:46:35;;;;;;;8.10;7.30;;;22.50;70.40;;;;;;6085234;28;90654;-69
2023/03/14 12:49:38;;;;;;;10.70;7.88;;;22.50;70.40;;;;;;6087089;28;89153;-69
2023/03/14 12:52:53;;;;;;;8.32;7.53;;;22.50;70.30;;;;;;6085968;28;89384;-69
2023/03/14 12:56:04;;;;;;;8.68;7.88;;;22.50;70.30;;;;;;6086514;28;90233;-69
2023/03/14 12:59:35;;;;;;;9.35;8.45;;;22.50;70.40;;;;;;6085116;28;89010;-69
2023/03/14 13:02:42;;;;;;;8.88;7.78;;;22.50;70.30;;;;;;6086475;28;88798;-68
2023/03/14 13:05:54;;;;;;;9.85;8.85;;;22.50;70.30;;;;;;6086296;28;89050;-70
2023/03/14 13:08:57;;;;;;;9.38;8.32;;;22.50;70.30;;;;;;6086517;28;87316;-69
2023/03/14 13:12:04;;;;;;;9.60;8.60;;;22.50;70.30;;;;;;6085295;28;89162;-69
2023/03/14 13:15:19;;;;;;;10.48;9.40;;;22.50;70.30;;;;;;6086494;28;89193;-69
2023/03/14 13:18:29;;;;;;;10.23;9.15;;;22.50;70.20;;;;;;6085383;28;90083;-69
2023/03/14 13:21:36;;;;;;;10.18;9.18;;;22.50;70.20;;;;;;6077481;28;89153;-69
2023/03/14 13:24:39;;;;;;;10.70;9.60;;;22.50;70.30;;;;;;6085279;28;89498;-70
2023/03/14 13:27:42;;;;;;;10.18;9.18;;;22.50;70.20;;;;;;6085893;28;88341;-69
2023/03/14 13:30:48;;;;;;;10.02;8.98;;;22.50;70.20;;;;;;6085785;28;89131;-69
2023/03/14 13:33:58;;;;;;;11.65;9.82;;;22.50;70.20;;;;;;6085426;28;89105;-70
2023/03/14 13:37:00;;;;;;;10.13;9.13;;;22.50;70.30;;;;;;6084683;28;89121;-69
2023/03/14 13:40:03;;;;;;;10.93;9.90;;;22.50;70.30;;;;;;6074121;28;88288;-69
2023/03/14 13:43:13;;;;;;;10.38;9.38;;;22.50;70.30;;;;;;6085504;28;89083;-70
2023/03/14 13:46:20;;;;;;;10.00;9.00;;;22.50;70.10;;;;;;6083302;28;89140;-69
2023/03/14 13:49:24;;;;;;;11.05;9.95;;;22.50;70.20;;;;;;6084680;28;90076;-69
2023/03/14 13:52:30;;;;;;;11.25;10.07;;;22.50;70.10;;;;;;6085307;28;89089;-70
2023/03/14 13:55:32;;;;;;;10.52;9.52;;;22.50;70.10;;;;;;6084471;28;88825;-70
2023/03/14 13:58:39;;;;;;;10.45;9.45;;;22.50;70.10;;;;;;6073060;28;89065;-70
2023/03/14 14:01:49;;;;;;;10.25;9.27;;;22.50;70.00;;;;;;6075217;28;88974;-69
2023/03/14 14:04:51;;;;;;;10.18;9.18;;;22.50;70.10;;;;;;6085990;28;88132;-69
2023/03/14 14:07:53;;;;;;;10.60;9.52;;;22.50;70.00;;;;;;6085114;28;89120;-69
2023/03/14 14:11:01;;;;;;;11.02;9.90;;;22.50;70.00;;;;;;6084741;28;88318;-69
2023/03/14 14:14:04;;;;;;;10.95;9.95;;;22.50;70.00;;;;;;6083940;28;89058;-69
2023/03/14 14:17:11;;;;;;;10.80;9.80;;;22.50;70.00;;;;;;6072749;28;89156;-70
2023/03/14 14:20:21;;;;;;;10.80;9.75;;;22.60;70.00;;;;;;6084837;28;90111;-70
2023/03/14 14:23:27;;;;;;;10.93;9.90;;;22.50;70.00;;;;;;6071509;28;89097;-69
2023/03/14 14:26:29;;;;;;;11.15;9.75;;;22.60;70.00;;;;;;6077546;28;89571;-70
2023/03/14 14:29:34;;;;;;;10.30;9.30;;;22.60;70.00;;;;;;6084760;28;89070;-69
2023/03/14 14:32:39;;;;;;;10.50;9.50;;;22.50;70.00;;;;;;6072820;28;88906;-70
2023/03/14 14:35:41;;;;;;;11.27;10.18;;;22.50;70.00;;;;;;6086255;28;89040;-69
2023/03/14 14:38:43;;;;;;;10.00;9.00;;;22.60;70.00;;;;;;6076888;28;89857;-69
2023/03/14 14:41:48;;;;;;;10.27;9.23;;;22.50;70.00;;;;;;6084286;28;87368;-70
2023/03/14 14:44:52;;;;;;;10.40;9.48;;;22.50;69.90;;;;;;6082173;28;89306;-70
2023/03/14 14:47:58;;;;;;;10.90;9.80;;;22.50;69.90;;;;;;6085214;28;89105;-70
2023/03/14 14:51:02;;;;;;;10.80;9.70;;;22.50;69.90;;;;;;6083665;28;89962;-70
2023/03/14 14:54:13;;;;;;;10.75;9.75;;;22.60;70.00;;;;;;6084004;28;89478;-69
2023/03/14 14:57:20;;;;;;;10.68;9.68;;;22.60;70.00;;;;;;6074804;28;89065;-70
2023/03/14 15:00:23;;;;;;;10.68;9.55;;;22.60;70.00;;;;;;6063394;28;89084;-70
2023/03/14 15:03:31;;;;;;;10.77;9.77;;;22.60;69.90;;;;;;6083342;28;87983;-70
2023/03/14 15:06:33;;;;;;;10.43;9.43;;;22.60;69.90;;;;;;6084026;28;88348;-70
2023/03/14 15:09:35;;;;;;;9.85;8.95;;;22.60;69.90;;;;;;6083158;28;89308;-70
2023/03/14 15:12:37;;;;;;;10.27;9.27;;;22.50;69.90;;;;;;6084017;28;88367;-70
2023/03/14 15:15:40;;;;;;;9.88;8.90;;;22.50;69.90;;;;;;6083340;28;89077;-70
2023/03/14 15:18:44;;;;;;;9.98;9.07;;;22.60;70.00;;;;;;6083910;28;89200;-70
2023/03/14 15:21:46;;;;;;;9.57;8.68;;;22.50;69.90;;;;;;6084975;28;90501;-70
2023/03/14 15:24:48;;;;;;;10.30;9.38;;;22.60;70.00;;;;;;6069776;28;89251;-70
2023/03/14 15:27:50;;;;;;;9.98;9.02;;;22.60;70.00;;;;;;6086917;28;89608;-70
2023/03/14 15:30:54;;;;;;;9.82;8.93;;;22.50;69.90;;;;;;6077282;28;89169;-70
2023/03/14 15:33:57;;;;;;;10.15;9.15;;;22.50;69.90;;;;;;6088041;28;89156;-71
2023/03/14 15:36:59;;;;;;;10.25;9.27;;;22.50;69.80;;;;;;6086221;28;89335;-70
2023/03/14 15:40:02;;;;;;;9.88;8.95;;;22.60;70.10;;;;;;6077830;28;89109;-71
2023/03/14 15:43:05;;;;;;;10.82;9.82;;;22.60;69.90;;;;;;6087421;28;88385;-71
2023/03/14 15:46:09;;;;;;;9.57;8.65;;;22.50;69.80;;;;;;6084090;28;88003;-70
2023/03/14 15:49:12;;;;;;;9.48;8.57;;;22.60;69.90;;;;;;6087064;28;89132;-71
2023/03/14 15:52:14;;;;;;;9.52;8.63;;;22.60;69.90;;;;;;6075377;28;90112;-70
2023/03/14 15:55:17;;;;;;;10.25;9.25;;;22.50;69.80;;;;;;6087463;28;89163;-70
2023/03/14 15:58:20;;;;;;;9.27;8.43;;;22.60;69.90;;;;;;6074854;28;89389;-70
2023/03/14 16:01:23;;;;;;;9.70;8.80;;;22.50;69.80;;;;;;6075547;28;89170;-70